sensor_id;sensor_type;location;lat;lon;timestamp;P1;durP1;ratioP1;P2;durP2;ratioP2
38805;SDS011;25635;51.146;17.162;2024-01-30T00:00:00;31.30;;;15.70;;
38805;SDS011;25635;51.146;17.162;2024-01-30T00:02:28;29.30;;;15.10;;
38805;SDS011;25635;51.146;17.162;2024-01-30T00:04:54;29.80;;;16.10;;
38805;SDS011;25635;51.146;17.162;2024-01-30T00:07:20;31.10;;;15.20;;
38805;SDS011;25635;51.146;17.162;2024-01-30T00:09:46;28.60;;;13.90;;
38805;SDS011;25635;51.146;17.162;2024-01-30T00:12:14;29.10;;;14.00;;
38805;SDS011;25635;51.146;17.162;2024-01-30T00:14:43;26.10;;;13.60;;
38805;SDS011;25635;51.146;17.162;2024-01-30T00:17:09;25.40;;;12.30;;
38805;SDS011;25635;51.146;17.162;2024-01-30T00:19:35;22.40;;;11.70;;
38805;SDS011;25635;51.146;17.162;2024-01-30T00:22:01;19.40;;;9.20;;
38805;SDS011;25635;51.146;17.162;2024-01-30T00:24:28;20.20;;;10.50;;
38805;SDS011;25635;51.146;17.162;2024-01-30T00:26:54;21.60;;;10.90;;
38805;SDS011;25635;51.146;17.162;2024-01-30T00:29:20;20.40;;;10.80;;
38805;SDS011;25635;51.146;17.162;2024-01-30T00:31:48;20.40;;;10.90;;
38805;SDS011;25635;51.146;17.162;2024-01-30T00:34:14;25.00;;;12.30;;
38805;SDS011;25635;51.146;17.162;2024-01-30T00:36:40;21.30;;;11.80;;
38805;SDS011;25635;51.146;17.162;2024-01-30T00:39:06;22.30;;;11.30;;
38805;SDS011;25635;51.146;17.162;2024-01-30T00:41:34;19.30;;;10.30;;
38805;SDS011;25635;51.146;17.162;2024-01-30T00:44:01;20.50;;;10.30;;
38805;SDS011;25635;51.146;17.162;2024-01-30T00:46:27;20.60;;;11.00;;
38805;SDS011;25635;51.146;17.162;2024-01-30T00:48:53;23.60;;;10.30;;
38805;SDS011;25635;51.146;17.162;2024-01-30T00:51:19;22.30;;;9.90;;
38805;SDS011;25635;51.146;17.162;2024-01-30T00:53:45;19.80;;;9.10;;
38805;SDS011;25635;51.146;17.162;2024-01-30T00:56:11;18.20;;;8.50;;
38805;SDS011;25635;51.146;17.162;2024-01-30T00:58:37;17.30;;;8.40;;
38805;SDS011;25635;51.146;17.162;2024-01-30T01:01:04;18.00;;;8.90;;
38805;SDS011;25635;51.146;17.162;2024-01-30T01:03:30;19.00;;;8.40;;
38805;SDS011;25635;51.146;17.162;2024-01-30T01:05:56;18.20;;;9.60;;
38805;SDS011;25635;51.146;17.162;2024-01-30T01:08:22;16.60;;;8.40;;
38805;SDS011;25635;51.146;17.162;2024-01-30T01:10:48;18.60;;;9.80;;
38805;SDS011;25635;51.146;17.162;2024-01-30T01:13:14;18.30;;;9.60;;
38805;SDS011;25635;51.146;17.162;2024-01-30T01:15:40;19.90;;;9.80;;
38805;SDS011;25635;51.146;17.162;2024-01-30T01:18:06;19.10;;;9.70;;
38805;SDS011;25635;51.146;17.162;2024-01-30T01:20:32;18.40;;;9.30;;
38805;SDS011;25635;51.146;17.162;2024-01-30T01:22:58;19.80;;;8.40;;
38805;SDS011;25635;51.146;17.162;2024-01-30T01:25:24;17.40;;;8.20;;
38805;SDS011;25635;51.146;17.162;2024-01-30T01:27:50;15.40;;;8.30;;
38805;SDS011;25635;51.146;17.162;2024-01-30T01:30:18;13.80;;;7.50;;
38805;SDS011;25635;51.146;17.162;2024-01-30T01:32:50;13.70;;;7.30;;
38805;SDS011;25635;51.146;17.162;2024-01-30T01:35:23;17.00;;;7.60;;
38805;SDS011;25635;51.146;17.162;2024-01-30T01:37:53;16.20;;;8.00;;
38805;SDS011;25635;51.146;17.162;2024-01-30T01:40:26;14.20;;;7.40;;
38805;SDS011;25635;51.146;17.162;2024-01-30T01:42:53;12.30;;;7.10;;
38805;SDS011;25635;51.146;17.162;2024-01-30T01:45:20;14.30;;;8.20;;
38805;SDS011;25635;51.146;17.162;2024-01-30T01:47:48;14.60;;;7.40;;
38805;SDS011;25635;51.146;17.162;2024-01-30T01:50:16;14.20;;;6.90;;
38805;SDS011;25635;51.146;17.162;2024-01-30T01:52:49;15.10;;;7.00;;
38805;SDS011;25635;51.146;17.162;2024-01-30T01:55:16;14.20;;;7.00;;
38805;SDS011;25635;51.146;17.162;2024-01-30T01:57:47;13.90;;;7.00;;
38805;SDS011;25635;51.146;17.162;2024-01-30T02:00:13;13.00;;;6.50;;
38805;SDS011;25635;51.146;17.162;2024-01-30T02:02:40;12.90;;;6.70;;
38805;SDS011;25635;51.146;17.162;2024-01-30T02:05:07;12.70;;;6.90;;
38805;SDS011;25635;51.146;17.162;2024-01-30T02:07:34;15.30;;;8.20;;
38805;SDS011;25635;51.146;17.162;2024-01-30T02:10:00;16.90;;;9.40;;
38805;SDS011;25635;51.146;17.162;2024-01-30T02:12:26;17.50;;;8.20;;
38805;SDS011;25635;51.146;17.162;2024-01-30T02:14:52;18.20;;;8.80;;
38805;SDS011;25635;51.146;17.162;2024-01-30T02:17:19;17.40;;;9.00;;
38805;SDS011;25635;51.146;17.162;2024-01-30T02:19:45;17.90;;;9.80;;
38805;SDS011;25635;51.146;17.162;2024-01-30T02:22:11;18.20;;;9.10;;
38805;SDS011;25635;51.146;17.162;2024-01-30T02:24:39;15.60;;;9.20;;
38805;SDS011;25635;51.146;17.162;2024-01-30T02:27:05;18.20;;;9.40;;
38805;SDS011;25635;51.146;17.162;2024-01-30T02:29:31;17.60;;;9.20;;
38805;SDS011;25635;51.146;17.162;2024-01-30T02:31:57;18.50;;;8.40;;
38805;SDS011;25635;51.146;17.162;2024-01-30T02:34:23;17.40;;;8.60;;
38805;SDS011;25635;51.146;17.162;2024-01-30T02:36:50;20.60;;;10.70;;
38805;SDS011;25635;51.146;17.162;2024-01-30T02:39:16;25.90;;;12.00;;
38805;SDS011;25635;51.146;17.162;2024-01-30T02:41:43;26.10;;;12.40;;
38805;SDS011;25635;51.146;17.162;2024-01-30T02:44:09;26.80;;;12.00;;
38805;SDS011;25635;51.146;17.162;2024-01-30T02:46:35;22.70;;;11.40;;
38805;SDS011;25635;51.146;17.162;2024-01-30T02:49:01;32.20;;;13.80;;
38805;SDS011;25635;51.146;17.162;2024-01-30T02:51:27;29.00;;;13.30;;
38805;SDS011;25635;51.146;17.162;2024-01-30T02:53:53;30.50;;;14.20;;
38805;SDS011;25635;51.146;17.162;2024-01-30T02:56:19;27.80;;;13.10;;
38805;SDS011;25635;51.146;17.162;2024-01-30T02:58:45;30.30;;;14.10;;
38805;SDS011;25635;51.146;17.162;2024-01-30T03:01:11;28.80;;;12.30;;
38805;SDS011;25635;51.146;17.162;2024-01-30T03:03:38;23.90;;;11.20;;
38805;SDS011;25635;51.146;17.162;2024-01-30T03:06:05;27.00;;;12.90;;
38805;SDS011;25635;51.146;17.162;2024-01-30T03:08:31;22.50;;;10.80;;
38805;SDS011;25635;51.146;17.162;2024-01-30T03:10:57;24.30;;;11.40;;
38805;SDS011;25635;51.146;17.162;2024-01-30T03:13:23;25.50;;;11.50;;
38805;SDS011;25635;51.146;17.162;2024-01-30T03:15:50;23.50;;;10.80;;
38805;SDS011;25635;51.146;17.162;2024-01-30T03:18:17;25.60;;;12.30;;
38805;SDS011;25635;51.146;17.162;2024-01-30T03:20:43;22.60;;;11.40;;
38805;SDS011;25635;51.146;17.162;2024-01-30T03:23:09;19.20;;;10.50;;
38805;SDS011;25635;51.146;17.162;2024-01-30T03:25:35;22.70;;;12.20;;
38805;SDS011;25635;51.146;17.162;2024-01-30T03:28:02;21.50;;;10.70;;
38805;SDS011;25635;51.146;17.162;2024-01-30T03:30:28;21.80;;;11.70;;
38805;SDS011;25635;51.146;17.162;2024-01-30T03:32:54;21.40;;;10.80;;
38805;SDS011;25635;51.146;17.162;2024-01-30T03:35:20;20.60;;;11.20;;
38805;SDS011;25635;51.146;17.162;2024-01-30T03:37:46;21.90;;;11.50;;
38805;SDS011;25635;51.146;17.162;2024-01-30T03:40:12;28.40;;;13.90;;
38805;SDS011;25635;51.146;17.162;2024-01-30T03:42:39;26.50;;;13.40;;
38805;SDS011;25635;51.146;17.162;2024-01-30T03:45:05;24.50;;;12.40;;
38805;SDS011;25635;51.146;17.162;2024-01-30T03:47:32;22.30;;;12.20;;
38805;SDS011;25635;51.146;17.162;2024-01-30T03:49:58;31.10;;;14.80;;
38805;SDS011;25635;51.146;17.162;2024-01-30T03:52:24;20.60;;;11.50;;
38805;SDS011;25635;51.146;17.162;2024-01-30T03:54:50;26.20;;;11.80;;
38805;SDS011;25635;51.146;17.162;2024-01-30T03:57:16;26.90;;;12.90;;
38805;SDS011;25635;51.146;17.162;2024-01-30T03:59:42;28.50;;;13.20;;
38805;SDS011;25635;51.146;17.162;2024-01-30T04:02:09;26.00;;;13.10;;
38805;SDS011;25635;51.146;17.162;2024-01-30T04:04:36;24.40;;;12.40;;
38805;SDS011;25635;51.146;17.162;2024-01-30T04:07:02;26.30;;;12.80;;
38805;SDS011;25635;51.146;17.162;2024-01-30T04:09:28;28.80;;;14.30;;
38805;SDS011;25635;51.146;17.162;2024-01-30T04:11:55;25.30;;;13.00;;
38805;SDS011;25635;51.146;17.162;2024-01-30T04:14:21;25.90;;;14.10;;
38805;SDS011;25635;51.146;17.162;2024-01-30T04:16:47;24.00;;;13.70;;
38805;SDS011;25635;51.146;17.162;2024-01-30T04:19:13;24.40;;;13.10;;
38805;SDS011;25635;51.146;17.162;2024-01-30T04:21:39;27.80;;;12.80;;
38805;SDS011;25635;51.146;17.162;2024-01-30T04:24:05;24.00;;;12.60;;
38805;SDS011;25635;51.146;17.162;2024-01-30T04:26:31;27.20;;;13.10;;
38805;SDS011;25635;51.146;17.162;2024-01-30T04:28:57;22.80;;;12.30;;
38805;SDS011;25635;51.146;17.162;2024-01-30T04:31:24;25.10;;;11.60;;
38805;SDS011;25635;51.146;17.162;2024-01-30T04:33:50;25.60;;;12.70;;
38805;SDS011;25635;51.146;17.162;2024-01-30T04:36:16;25.00;;;12.30;;
38805;SDS011;25635;51.146;17.162;2024-01-30T04:38:42;25.10;;;12.70;;
38805;SDS011;25635;51.146;17.162;2024-01-30T04:41:08;23.40;;;13.10;;
38805;SDS011;25635;51.146;17.162;2024-01-30T04:43:34;24.10;;;11.40;;
38805;SDS011;25635;51.146;17.162;2024-01-30T04:46:00;23.70;;;12.60;;
38805;SDS011;25635;51.146;17.162;2024-01-30T04:48:27;24.30;;;12.60;;
38805;SDS011;25635;51.146;17.162;2024-01-30T04:50:53;24.40;;;12.30;;
38805;SDS011;25635;51.146;17.162;2024-01-30T04:53:20;25.10;;;12.30;;
38805;SDS011;25635;51.146;17.162;2024-01-30T04:55:46;22.20;;;11.00;;
38805;SDS011;25635;51.146;17.162;2024-01-30T04:58:12;24.30;;;12.00;;
38805;SDS011;25635;51.146;17.162;2024-01-30T05:00:38;24.60;;;11.30;;
38805;SDS011;25635;51.146;17.162;2024-01-30T05:03:04;20.20;;;11.10;;
38805;SDS011;25635;51.146;17.162;2024-01-30T05:05:30;23.50;;;11.60;;
38805;SDS011;25635;51.146;17.162;2024-01-30T05:07:56;23.60;;;11.40;;
38805;SDS011;25635;51.146;17.162;2024-01-30T05:10:22;19.80;;;10.30;;
38805;SDS011;25635;51.146;17.162;2024-01-30T05:12:48;22.20;;;10.10;;
38805;SDS011;25635;51.146;17.162;2024-01-30T05:15:14;22.00;;;10.30;;
38805;SDS011;25635;51.146;17.162;2024-01-30T05:17:40;24.80;;;12.50;;
38805;SDS011;25635;51.146;17.162;2024-01-30T05:20:07;25.00;;;12.10;;
38805;SDS011;25635;51.146;17.162;2024-01-30T05:22:34;20.30;;;10.70;;
38805;SDS011;25635;51.146;17.162;2024-01-30T05:25:00;22.50;;;12.50;;
38805;SDS011;25635;51.146;17.162;2024-01-30T05:27:29;21.40;;;11.80;;
38805;SDS011;25635;51.146;17.162;2024-01-30T05:29:55;23.10;;;12.10;;
38805;SDS011;25635;51.146;17.162;2024-01-30T05:32:21;23.20;;;12.00;;
38805;SDS011;25635;51.146;17.162;2024-01-30T05:34:48;24.50;;;12.40;;
38805;SDS011;25635;51.146;17.162;2024-01-30T05:37:16;21.60;;;11.80;;
38805;SDS011;25635;51.146;17.162;2024-01-30T05:39:43;22.20;;;11.50;;
38805;SDS011;25635;51.146;17.162;2024-01-30T05:42:09;23.00;;;11.50;;
38805;SDS011;25635;51.146;17.162;2024-01-30T05:44:35;26.40;;;12.20;;
38805;SDS011;25635;51.146;17.162;2024-01-30T05:47:01;22.90;;;12.40;;
38805;SDS011;25635;51.146;17.162;2024-01-30T05:49:28;20.30;;;10.20;;
38805;SDS011;25635;51.146;17.162;2024-01-30T05:51:54;21.60;;;10.50;;
38805;SDS011;25635;51.146;17.162;2024-01-30T05:54:20;19.90;;;12.20;;
38805;SDS011;25635;51.146;17.162;2024-01-30T05:56:46;22.00;;;11.10;;
38805;SDS011;25635;51.146;17.162;2024-01-30T05:59:12;20.60;;;11.20;;
38805;SDS011;25635;51.146;17.162;2024-01-30T06:01:38;21.30;;;11.00;;
38805;SDS011;25635;51.146;17.162;2024-01-30T06:04:10;19.20;;;10.40;;
38805;SDS011;25635;51.146;17.162;2024-01-30T06:06:36;23.90;;;12.70;;
38805;SDS011;25635;51.146;17.162;2024-01-30T06:09:02;21.80;;;11.80;;
38805;SDS011;25635;51.146;17.162;2024-01-30T06:11:28;26.20;;;12.40;;
38805;SDS011;25635;51.146;17.162;2024-01-30T06:13:54;30.60;;;14.80;;
38805;SDS011;25635;51.146;17.162;2024-01-30T06:16:20;29.80;;;14.40;;
38805;SDS011;25635;51.146;17.162;2024-01-30T06:18:48;20.00;;;10.80;;
38805;SDS011;25635;51.146;17.162;2024-01-30T06:21:14;25.20;;;12.90;;
38805;SDS011;25635;51.146;17.162;2024-01-30T06:23:40;19.50;;;10.20;;
38805;SDS011;25635;51.146;17.162;2024-01-30T06:26:06;21.50;;;11.70;;
38805;SDS011;25635;51.146;17.162;2024-01-30T06:28:33;24.70;;;12.40;;
38805;SDS011;25635;51.146;17.162;2024-01-30T06:31:00;27.10;;;14.70;;
38805;SDS011;25635;51.146;17.162;2024-01-30T06:47:29;31.70;;;15.70;;
38805;SDS011;25635;51.146;17.162;2024-01-30T07:21:52;29.70;;;15.20;;
38805;SDS011;25635;51.146;17.162;2024-01-30T08:02:52;20.10;;;9.80;;
38805;SDS011;25635;51.146;17.162;2024-01-30T08:19:32;17.50;;;8.80;;
38805;SDS011;25635;51.146;17.162;2024-01-30T08:46:47;21.70;;;8.40;;
38805;SDS011;25635;51.146;17.162;2024-01-30T09:00:34;13.50;;;6.30;;
38805;SDS011;25635;51.146;17.162;2024-01-30T14:03:34;9.00;;;5.00;;
38805;SDS011;25635;51.146;17.162;2024-01-30T14:23:58;9.30;;;5.00;;
38805;SDS011;25635;51.146;17.162;2024-01-30T14:44:23;12.30;;;6.60;;
38805;SDS011;25635;51.146;17.162;2024-01-30T19:47:14;49.60;;;27.40;;
38805;SDS011;25635;51.146;17.162;2024-01-30T20:21:54;39.90;;;23.90;;
38805;SDS011;25635;51.146;17.162;2024-01-30T21:16:48;43.50;;;24.00;;
38805;SDS011;25635;51.146;17.162;2024-01-30T22:32:54;41.70;;;23.30;;
